This is the latest recevied weather packets stored in our database for station/object VA7SCH-13. If no packets are shown the sender has not sent any weather packets the latest 10 day(s).
| Time | Temp. | Humidity | Pressure | Rain* | Wind** | Luminosity | Snow |
|---|---|---|---|---|---|---|---|
| 1777756527 | 25° C | 31% | 1021.6 hPa | 0 mm | - | - | - |
| 1777754127 | 25° C | 33% | 1021.7 hPa | 0 mm | - | - | - |
| 1777753527 | 24.44° C | 34% | 1021.7 hPa | 0 mm | - | - | - |
| 1777748726 | 21.11° C | 40% | 1022.7 hPa | 0 mm | - | - | - |
| 1777746927 | 21.11° C | 41% | 1022.8 hPa | 0 mm | - | - | - |
| 1777746326 | 20.56° C | 42% | 1023.8 hPa | 0 mm | - | - | - |
| 1777739727 | 17.22° C | 52% | 1023.7 hPa | 0 mm | - | - | - |
| 1777739126 | 16.67° C | 52% | 1023.6 hPa | 0 mm | - | - | - |
| 1777737926 | 15.56° C | 57% | 1023.6 hPa | 0 mm | - | - | - |
| 1777737327 | 16.11° C | 53% | 1023.6 hPa | 0 mm | - | - | - |
| 1777733727 | 13.89° C | 61% | 1023.8 hPa | 0 mm | - | - | - |
| 1777725945 | 10.56° C | 68% | 1022.5 hPa | 0 mm | - | - | - |
| 1777725348 | 10.56° C | 67% | 1022.5 hPa | 0 mm | - | - | - |
| 1777722345 | 11.11° C | 64% | 1021.4 hPa | 0 mm | - | - | - |
| 1777717525 | 12.22° C | 61% | 1021.4 hPa | 0 mm | - | - | - |
| 1777714524 | 12.78° C | 57% | 1021.4 hPa | 0 mm | - | - | - |
| 1777710944 | 13.89° C | 52% | 1020.5 hPa | 0 mm | - | - | - |
| 1777710344 | 14.44° C | 52% | 1020.6 hPa | 0 mm | - | - | - |
| 1777708524 | 15° C | 51% | 1020.6 hPa | 0 mm | - | - | - |
| 1777706124 | 15.56° C | 49% | 1020.7 hPa | 0 mm | - | - | - |
| 1777704923 | 15.56° C | 49% | 1020.5 hPa | 0 mm | - | - | - |
| 1777703143 | 16.11° C | 48% | 1019.3 hPa | 0 mm | - | - | - |
| 1777697123 | 16.67° C | 46% | 1018.9 hPa | 0 mm | - | - | - |
| 1777695943 | 17.22° C | 45% | 1019 hPa | 0 mm | - | - | - |
| 1777693523 | 18.33° C | 45% | 1017.8 hPa | 0 mm | - | - | - |
* Rain latest hour (hover to see other rain measurements)
** Current wind speed in m/s (hover to see current wind gust speed)